createdAt,value
2023-02-24T00:02:16.630Z,22.95
2023-02-24T00:05:01.920Z,24.42
2023-02-24T00:07:46.510Z,22.42
2023-02-24T00:10:32.655Z,24.83
2023-02-24T00:13:21.673Z,24.13
2023-02-24T00:16:07.468Z,23.15
2023-02-24T00:18:52.217Z,21.35
2023-02-24T00:24:22.910Z,21.23
2023-02-24T00:27:07.500Z,24.83
2023-02-24T00:29:52.400Z,24.95
2023-02-24T00:32:39.414Z,24.23
2023-02-24T00:38:09.085Z,23.63
2023-02-24T00:40:55.052Z,22.65
2023-02-24T00:43:46.267Z,24.00
2023-02-24T00:46:36.312Z,28.42
2023-02-24T00:49:23.896Z,24.02
2023-02-24T00:52:13.140Z,24.30
2023-02-24T00:54:58.301Z,23.55
2023-02-24T00:57:50.241Z,27.83
2023-02-24T01:00:36.277Z,22.45
2023-02-24T01:03:21.094Z,23.80
2023-02-24T01:08:52.983Z,26.52
2023-02-24T01:11:56.950Z,20.73
2023-02-24T01:17:28.044Z,23.38
2023-02-24T01:20:17.920Z,22.90
2023-02-24T01:23:02.864Z,24.67
2023-02-24T01:28:32.317Z,22.02
2023-02-24T01:31:20.410Z,21.10
2023-02-24T01:34:05.729Z,21.63
2023-02-24T01:36:51.068Z,23.90
2023-02-24T01:39:37.693Z,21.10
2023-02-24T01:42:22.914Z,27.73
2023-02-24T01:48:02.217Z,21.05
2023-02-24T01:50:49.748Z,22.95
2023-02-24T01:53:35.636Z,21.02
2023-02-24T01:56:20.574Z,23.95
2023-02-24T01:59:05.918Z,26.35
2023-02-24T02:01:54.736Z,26.67
2023-02-24T02:04:44.610Z,24.75
2023-02-24T02:07:30.205Z,26.55
2023-02-24T02:10:17.877Z,23.65
2023-02-24T02:13:03.962Z,22.35
2023-02-24T02:16:03.651Z,26.83
2023-02-24T02:18:58.734Z,24.50
2023-02-24T02:21:54.785Z,23.63
2023-02-24T02:24:51.788Z,24.95
2023-02-24T02:28:02.326Z,24.95
2023-02-24T02:30:51.304Z,30.35
2023-02-24T02:34:07.462Z,25.48
2023-02-24T02:37:14.544Z,24.48
2023-02-24T02:40:15.097Z,26.88
2023-02-24T02:43:16.956Z,27.65
2023-02-24T02:46:40.145Z,28.20
2023-02-24T02:52:56.039Z,26.77
2023-02-24T02:55:55.423Z,20.90
2023-02-24T02:58:45.607Z,24.50
2023-02-24T03:01:41.134Z,31.90
2023-02-24T03:04:28.904Z,26.10
2023-02-24T03:07:17.124Z,27.45
2023-02-24T03:10:10.660Z,26.85
2023-02-24T03:12:58.988Z,25.00
2023-02-24T03:15:46.892Z,28.58
2023-02-24T03:18:44.236Z,26.88
2023-02-24T03:24:18.004Z,29.08
2023-02-24T03:27:12.419Z,24.80
2023-02-24T03:30:09.964Z,32.58
2023-02-24T03:33:23.077Z,29.40
2023-02-24T03:36:08.534Z,34.10
2023-02-24T03:38:57.564Z,26.70
2023-02-24T03:41:46.665Z,29.88
2023-02-24T03:44:32.113Z,28.38
2023-02-24T03:47:19.742Z,30.00
2023-02-24T03:50:18.494Z,28.20
2023-02-24T03:53:35.750Z,31.50
2023-02-24T03:56:30.027Z,24.45
2023-02-24T03:59:46.853Z,31.95
2023-02-24T04:02:33.715Z,28.88
2023-02-24T04:05:24.565Z,30.40
2023-02-24T04:08:16.844Z,29.40
2023-02-24T04:11:10.059Z,29.77
2023-02-24T04:14:05.730Z,25.73
2023-02-24T04:16:59.997Z,23.60
2023-02-24T04:19:48.706Z,28.45
2023-02-24T04:22:36.626Z,27.65
2023-02-24T04:25:25.182Z,26.23
2023-02-24T04:28:12.926Z,24.40
2023-02-24T04:31:09.666Z,24.85
2023-02-24T04:33:54.625Z,26.13
2023-02-24T04:36:49.048Z,33.30
2023-02-24T04:39:38.112Z,26.27
2023-02-24T04:42:27.954Z,31.65
2023-02-24T04:45:19.504Z,30.55
2023-02-24T04:48:04.055Z,24.33
2023-02-24T04:53:40.024Z,31.05
2023-02-24T04:56:25.081Z,28.60
2023-02-24T04:59:11.500Z,26.30
2023-02-24T05:02:00.710Z,26.90
2023-02-24T05:04:48.848Z,28.88
2023-02-24T05:07:34.220Z,31.63
2023-02-24T05:10:19.362Z,32.08
2023-02-24T05:13:06.158Z,28.98
2023-02-24T05:15:50.686Z,25.60
2023-02-24T05:18:39.029Z,26.40
2023-02-24T05:21:35.755Z,29.02
2023-02-24T05:24:20.588Z,24.95
2023-02-24T05:27:05.719Z,25.45
2023-02-24T05:29:50.535Z,30.13
2023-02-24T05:35:20.485Z,30.45
2023-02-24T05:40:57.009Z,26.20
2023-02-24T05:43:47.505Z,24.42
2023-02-24T05:46:34.508Z,26.30
2023-02-24T05:49:26.286Z,25.80
2023-02-24T05:52:13.465Z,28.65
2023-02-24T05:55:00.383Z,27.42
2023-02-24T05:57:45.510Z,26.77
2023-02-24T06:00:30.970Z,31.38
2023-02-24T06:06:08.846Z,26.73
2023-02-24T06:08:54.696Z,25.90
2023-02-24T06:11:41.535Z,27.45
2023-02-24T06:14:27.970Z,26.50
2023-02-24T06:17:16.604Z,27.67
2023-02-24T06:20:01.611Z,25.60
2023-02-24T06:22:48.013Z,26.77
2023-02-24T06:25:33.057Z,24.38
2023-02-24T06:28:19.309Z,23.10
2023-02-24T06:31:06.142Z,23.38
2023-02-24T06:33:52.665Z,25.30
2023-02-24T06:36:38.047Z,24.08
2023-02-24T06:39:23.081Z,23.50
2023-02-24T06:42:10.178Z,27.02
2023-02-24T06:44:54.998Z,26.60
2023-02-24T06:47:42.534Z,24.92
2023-02-24T06:50:28.158Z,23.38
2023-02-24T06:53:16.275Z,28.90
2023-02-24T06:56:14.102Z,25.63
2023-02-24T06:58:58.964Z,23.45
2023-02-24T07:01:46.743Z,22.17
2023-02-24T07:04:42.811Z,24.30
2023-02-24T07:07:28.844Z,25.23
2023-02-24T07:10:13.800Z,20.77
2023-02-24T07:12:58.557Z,23.35
2023-02-24T07:18:41.279Z,24.30
2023-02-24T07:21:29.812Z,19.17
2023-02-24T07:24:25.467Z,20.75
2023-02-24T07:27:21.069Z,23.17
2023-02-24T07:30:09.725Z,24.67
2023-02-24T07:32:54.880Z,23.48
2023-02-24T07:35:41.463Z,18.92
2023-02-24T07:38:26.719Z,21.13
2023-02-24T07:41:14.696Z,21.27
2023-02-24T07:44:02.866Z,24.55
2023-02-24T07:46:48.473Z,18.10
2023-02-24T07:49:33.736Z,17.27
2023-02-24T07:52:18.734Z,20.23
2023-02-24T07:57:48.348Z,18.65
2023-02-24T08:00:49.453Z,17.80
2023-02-24T08:03:40.758Z,19.13
2023-02-24T08:06:37.401Z,16.40
2023-02-24T08:10:09.593Z,19.63
2023-02-24T08:12:55.920Z,16.05
2023-02-24T08:15:44.933Z,16.88
2023-02-24T08:18:36.646Z,16.58
2023-02-24T08:21:21.459Z,15.73
2023-02-24T08:24:16.920Z,18.80
2023-02-24T08:27:04.839Z,20.33
2023-02-24T08:29:59.032Z,19.02
2023-02-24T08:32:46.012Z,18.00
2023-02-24T08:35:35.276Z,20.65
2023-02-24T08:38:24.293Z,16.83
2023-02-24T08:41:16.978Z,20.48
2023-02-24T08:44:02.258Z,16.33
2023-02-24T08:46:51.683Z,22.02
2023-02-24T08:49:38.817Z,16.77
2023-02-24T08:52:23.684Z,17.42
2023-02-24T08:55:10.030Z,21.73
2023-02-24T08:57:55.898Z,21.67
2023-02-24T09:00:50.059Z,17.00
2023-02-24T09:03:34.684Z,17.50
2023-02-24T09:06:27.676Z,19.02
2023-02-24T09:09:22.362Z,20.55
2023-02-24T09:12:09.772Z,20.35
2023-02-24T09:14:58.029Z,20.92
2023-02-24T09:17:44.422Z,20.38
2023-02-24T09:20:47.963Z,23.02
2023-02-24T09:23:45.237Z,20.63
2023-02-24T09:26:33.454Z,18.98
2023-02-24T09:29:33.721Z,18.08
2023-02-24T09:32:18.789Z,18.25
2023-02-24T09:35:04.205Z,21.65
2023-02-24T09:37:48.810Z,16.75
2023-02-24T09:40:39.910Z,21.30
2023-02-24T09:43:30.096Z,20.80
2023-02-24T09:46:15.333Z,19.90
2023-02-24T09:49:47.387Z,21.63
2023-02-24T09:52:46.752Z,16.27
2023-02-24T09:55:59.617Z,18.92
2023-02-24T09:59:25.398Z,16.33
2023-02-24T10:02:33.408Z,20.10
2023-02-24T10:05:21.181Z,16.88
2023-02-24T10:08:17.233Z,18.85
2023-02-24T10:11:08.486Z,19.27
2023-02-24T10:14:03.511Z,19.05
2023-02-24T10:17:10.804Z,17.92
2023-02-24T10:19:55.860Z,16.00
2023-02-24T10:22:52.386Z,22.08
2023-02-24T10:25:43.130Z,21.38
2023-02-24T10:28:45.289Z,17.20
2023-02-24T10:31:45.246Z,18.45
2023-02-24T10:34:32.663Z,18.98
2023-02-24T10:37:28.125Z,17.85
2023-02-24T10:40:25.640Z,19.55
2023-02-24T10:43:17.012Z,19.83
2023-02-24T10:46:05.549Z,18.35
2023-02-24T10:48:59.860Z,19.02
2023-02-24T10:51:51.184Z,17.35
2023-02-24T10:54:54.387Z,22.10
2023-02-24T10:57:59.299Z,21.33
2023-02-24T11:01:05.200Z,26.83
2023-02-24T11:04:00.801Z,23.33
2023-02-24T11:06:57.196Z,22.33
2023-02-24T11:09:51.786Z,20.48
2023-02-24T11:13:10.655Z,17.90
2023-02-24T11:16:14.560Z,16.77
2023-02-24T11:18:59.897Z,19.80
2023-02-24T11:21:44.418Z,21.52
2023-02-24T11:24:30.144Z,25.67
2023-02-24T11:27:17.318Z,15.80
2023-02-24T11:30:42.301Z,19.20
2023-02-24T11:33:34.625Z,19.55
2023-02-24T11:36:44.330Z,21.05
2023-02-24T11:39:59.284Z,21.83
2023-02-24T11:42:56.416Z,22.10
2023-02-24T11:45:46.967Z,19.83
2023-02-24T11:48:34.958Z,20.80
2023-02-24T11:51:25.544Z,18.85
2023-02-24T11:54:17.076Z,18.75
2023-02-24T11:57:03.481Z,19.08
2023-02-24T12:00:04.291Z,20.25
2023-02-24T12:03:09.391Z,15.60
2023-02-24T12:06:17.247Z,17.95
2023-02-24T12:09:18.610Z,19.25
2023-02-24T12:12:18.433Z,25.75
2023-02-24T12:15:12.930Z,23.33
2023-02-24T12:18:13.908Z,29.42
2023-02-24T12:21:16.879Z,21.48
2023-02-24T12:24:08.122Z,21.70
2023-02-24T12:27:12.530Z,22.00
2023-02-24T12:30:22.274Z,29.45
2023-02-24T12:33:31.306Z,28.80
2023-02-24T12:36:31.782Z,18.85
2023-02-24T12:39:35.352Z,23.92
2023-02-24T12:42:53.554Z,22.63
2023-02-24T12:45:51.725Z,20.60
2023-02-24T12:48:45.537Z,23.42
2023-02-24T12:51:40.075Z,32.83
2023-02-24T12:54:34.123Z,22.55
2023-02-24T12:57:25.133Z,20.08
2023-02-24T13:00:24.241Z,22.60
2023-02-24T13:03:15.195Z,27.13
2023-02-24T13:06:25.151Z,24.35
2023-02-24T13:09:44.376Z,28.17
2023-02-24T13:12:46.796Z,27.05
2023-02-24T13:15:31.784Z,26.23
2023-02-24T13:18:34.136Z,27.50
2023-02-24T13:21:24.087Z,30.10
2023-02-24T13:24:21.902Z,35.17
2023-02-24T13:30:00.660Z,38.85
2023-02-24T13:32:58.855Z,34.50
2023-02-24T13:35:46.334Z,35.88
2023-02-24T13:38:31.363Z,34.92
2023-02-24T13:41:24.511Z,35.50
2023-02-24T13:44:19.285Z,32.78
2023-02-24T13:47:31.029Z,35.83
2023-02-24T13:50:30.782Z,38.25
2023-02-24T13:53:23.097Z,32.55
2023-02-24T13:56:56.265Z,37.50
2023-02-24T14:00:01.247Z,37.58
2023-02-24T14:02:46.076Z,37.20
2023-02-24T14:05:33.936Z,38.35
2023-02-24T14:08:24.326Z,39.38
2023-02-24T14:11:14.443Z,39.05
2023-02-24T14:13:59.680Z,38.03
2023-02-24T14:16:49.531Z,41.10
2023-02-24T14:19:34.392Z,42.97
2023-02-24T14:22:20.729Z,39.03
2023-02-24T14:25:08.649Z,42.15
2023-02-24T14:27:55.273Z,49.50
2023-02-24T14:30:40.615Z,48.40
2023-02-24T14:33:32.011Z,42.42
2023-02-24T14:36:22.849Z,43.33
2023-02-24T14:39:21.419Z,44.55
2023-02-24T14:42:14.637Z,38.17
2023-02-24T14:44:59.421Z,43.33
2023-02-24T14:47:44.544Z,45.33
2023-02-24T14:50:33.510Z,47.70
2023-02-24T14:53:22.611Z,45.03
2023-02-24T14:56:10.403Z,48.30
2023-02-24T14:59:15.392Z,51.75
2023-02-24T15:02:02.236Z,50.72
2023-02-24T15:04:47.645Z,43.08
2023-02-24T15:07:34.531Z,45.38
2023-02-24T15:10:29.778Z,50.55
2023-02-24T15:13:34.230Z,48.08
2023-02-24T15:16:18.676Z,49.05
2023-02-24T15:19:04.790Z,51.33
2023-02-24T15:21:49.360Z,47.50
2023-02-24T15:24:35.010Z,53.60
2023-02-24T15:27:25.348Z,50.22
2023-02-24T15:30:28.086Z,63.63
2023-02-24T15:33:22.708Z,63.92
2023-02-24T15:36:37.002Z,50.63
2023-02-24T15:39:24.506Z,49.63
2023-02-24T15:42:28.215Z,55.95
2023-02-24T15:45:32.331Z,50.83
2023-02-24T15:48:24.369Z,52.08
2023-02-24T15:51:22.014Z,52.22
2023-02-24T15:54:19.935Z,48.38
2023-02-24T15:57:05.755Z,53.65
2023-02-24T15:59:50.581Z,56.35
2023-02-24T16:02:35.498Z,54.55
2023-02-24T16:05:20.429Z,59.70
2023-02-24T16:08:08.972Z,56.17
2023-02-24T16:10:53.792Z,55.38
2023-02-24T16:16:25.226Z,46.10
2023-02-24T16:19:14.100Z,55.20
2023-02-24T16:21:58.566Z,51.65
2023-02-24T16:24:43.785Z,51.83
2023-02-24T16:27:29.438Z,51.88
2023-02-24T16:30:17.530Z,61.40
2023-02-24T16:33:03.187Z,63.88
2023-02-24T16:35:50.082Z,61.00
2023-02-24T16:38:35.257Z,50.25
2023-02-24T16:41:20.369Z,54.28
2023-02-24T16:44:05.170Z,55.10
2023-02-24T16:46:51.070Z,57.05
2023-02-24T16:49:35.597Z,51.95
2023-02-24T16:52:22.752Z,53.95
2023-02-24T16:55:13.430Z,57.47
2023-02-24T16:57:58.322Z,61.35
2023-02-24T17:00:48.219Z,53.25
2023-02-24T17:03:45.207Z,53.95
2023-02-24T17:06:30.124Z,51.97
2023-02-24T17:09:15.030Z,53.17
2023-02-24T17:11:59.994Z,61.00
2023-02-24T17:14:44.953Z,55.03
2023-02-24T17:17:29.768Z,49.10
2023-02-24T17:20:16.599Z,57.97
2023-02-24T17:23:01.636Z,51.38
2023-02-24T17:25:51.647Z,54.33
2023-02-24T17:28:36.491Z,52.20
2023-02-24T17:31:22.232Z,59.42
2023-02-24T17:34:07.370Z,54.20
2023-02-24T17:36:52.609Z,52.15
2023-02-24T17:39:37.252Z,57.33
2023-02-24T17:42:22.149Z,59.10
2023-02-24T17:45:07.842Z,54.92
2023-02-24T17:47:53.120Z,50.45
2023-02-24T17:50:41.053Z,55.42
2023-02-24T17:53:26.154Z,55.60
2023-02-24T17:56:12.170Z,54.63
2023-02-24T17:59:00.277Z,54.92
2023-02-24T18:01:44.985Z,57.15
2023-02-24T18:04:31.040Z,54.22
2023-02-24T18:07:16.121Z,55.67
2023-02-24T18:10:00.839Z,58.97
2023-02-24T18:12:45.677Z,70.28
2023-02-24T18:15:30.236Z,71.60
2023-02-24T18:18:15.326Z,71.25
2023-02-24T18:21:02.185Z,70.88
2023-02-24T18:23:48.739Z,66.55
2023-02-24T18:26:33.290Z,58.70
2023-02-24T18:29:18.319Z,57.42
2023-02-24T18:32:04.053Z,56.60
2023-02-24T18:34:48.984Z,53.95
2023-02-24T18:37:34.294Z,53.47
2023-02-24T18:40:19.238Z,49.70
2023-02-24T18:43:04.324Z,51.30
2023-02-24T18:45:49.004Z,53.08
2023-02-24T18:48:34.408Z,56.35
2023-02-24T18:51:21.705Z,53.85
2023-02-24T18:54:06.402Z,52.03
2023-02-24T18:56:51.358Z,59.33
2023-02-24T18:59:36.621Z,50.83
2023-02-24T19:02:21.309Z,44.97
2023-02-24T19:05:06.908Z,45.15
2023-02-24T19:07:51.811Z,45.28
2023-02-24T19:10:39.968Z,43.30
2023-02-24T19:13:24.642Z,46.70
2023-02-24T19:16:10.071Z,40.95
2023-02-24T19:18:56.663Z,42.38
2023-02-24T19:21:44.602Z,46.35
2023-02-24T19:24:29.826Z,44.97
2023-02-24T19:27:14.836Z,47.60
2023-02-24T19:29:59.520Z,42.72
2023-02-24T19:32:44.864Z,47.47
2023-02-24T19:38:16.341Z,42.92
2023-02-24T19:41:01.308Z,45.92
2023-02-24T19:43:46.141Z,41.83
2023-02-24T19:46:33.329Z,48.65
2023-02-24T19:49:18.447Z,45.60
2023-02-24T19:52:03.424Z,46.58
2023-02-24T19:54:48.559Z,40.65
2023-02-24T19:57:33.317Z,45.78
2023-02-24T20:03:05.040Z,47.17
2023-02-24T20:05:49.517Z,41.25
2023-02-24T20:08:35.057Z,43.42
2023-02-24T20:11:21.276Z,45.58
2023-02-24T20:14:08.475Z,45.72
2023-02-24T20:16:53.119Z,46.72
2023-02-24T20:19:38.182Z,45.75
2023-02-24T20:22:23.007Z,44.72
2023-02-24T20:25:08.367Z,45.40
2023-02-24T20:27:52.999Z,43.33
2023-02-24T20:30:37.987Z,38.05
2023-02-24T20:33:23.654Z,49.90
2023-02-24T20:36:14.416Z,46.20
2023-02-24T20:38:59.338Z,41.63
2023-02-24T20:41:44.032Z,43.15
2023-02-24T20:44:29.160Z,38.45
2023-02-24T20:47:13.872Z,40.40
2023-02-24T20:49:58.785Z,38.13
2023-02-24T20:52:43.707Z,35.97
2023-02-24T20:55:28.685Z,38.92
2023-02-24T20:58:13.569Z,37.35
2023-02-24T21:00:58.642Z,37.38
2023-02-24T21:03:44.367Z,39.33
2023-02-24T21:06:29.804Z,35.75
2023-02-24T21:09:15.202Z,37.85
2023-02-24T21:11:59.949Z,38.08
2023-02-24T21:14:45.004Z,37.03
2023-02-24T21:17:30.748Z,38.63
2023-02-24T21:20:15.524Z,35.20
2023-02-24T21:23:01.193Z,36.28
2023-02-24T21:25:45.796Z,35.13
2023-02-24T21:28:30.686Z,34.55
2023-02-24T21:31:17.771Z,37.97
2023-02-24T21:34:03.105Z,36.38
2023-02-24T21:36:47.807Z,36.63
2023-02-24T21:39:33.075Z,37.42
2023-02-24T21:42:17.740Z,38.75
2023-02-24T21:45:03.260Z,36.65
2023-02-24T21:47:48.603Z,38.90
2023-02-24T21:50:33.384Z,37.05
2023-02-24T21:53:18.446Z,41.33
2023-02-24T21:56:16.931Z,45.13
2023-02-24T21:59:04.299Z,46.30
2023-02-24T22:01:49.305Z,38.20
2023-02-24T22:04:34.194Z,39.90
2023-02-24T22:07:19.216Z,41.20
2023-02-24T22:10:04.991Z,39.28
2023-02-24T22:12:50.563Z,46.15
2023-02-24T22:15:38.408Z,46.65
2023-02-24T22:18:23.722Z,42.63
2023-02-24T22:21:16.634Z,39.55
2023-02-24T22:24:03.002Z,44.17
2023-02-24T22:26:47.879Z,37.80
2023-02-24T22:29:32.734Z,36.80
2023-02-24T22:32:17.887Z,35.55
2023-02-24T22:35:02.826Z,35.15
2023-02-24T22:37:47.661Z,37.35
2023-02-24T22:40:32.391Z,39.60
2023-02-24T22:43:17.350Z,36.47
2023-02-24T22:46:05.145Z,35.22
2023-02-24T22:48:49.961Z,38.38
2023-02-24T22:51:34.935Z,37.35
2023-02-24T22:54:20.106Z,36.10
2023-02-24T22:57:05.202Z,36.40
2023-02-24T22:59:50.251Z,40.03
2023-02-24T23:02:35.158Z,38.97
2023-02-24T23:05:19.928Z,40.42
2023-02-24T23:08:04.913Z,33.70
2023-02-24T23:10:50.786Z,41.28
2023-02-24T23:13:35.700Z,39.33
2023-02-24T23:16:24.193Z,43.13
2023-02-24T23:19:16.482Z,40.33
2023-02-24T23:22:01.245Z,39.78
2023-02-24T23:24:46.308Z,39.53
2023-02-24T23:27:31.531Z,43.05
2023-02-24T23:30:16.554Z,39.33
2023-02-24T23:33:02.446Z,39.78
2023-02-24T23:35:46.885Z,42.63
2023-02-24T23:38:32.204Z,41.38
2023-02-24T23:41:17.045Z,43.42
2023-02-24T23:44:02.862Z,47.10
2023-02-24T23:46:47.785Z,37.53
2023-02-24T23:49:47.282Z,36.80
2023-02-24T23:52:33.506Z,41.20
2023-02-24T23:55:19.054Z,42.63
2023-02-24T23:58:03.968Z,42.55
